Time,TemperatureF,DewpointF,PressureIn,WindDirection,WindDirectionDegrees,WindSpeedMPH,WindSpeedGustMPH,Humidity,HourlyPrecipIn,Conditions,Clouds,dailyrainin,SoftwareType,DateUTC
2013-10-08 00:13:00,53.0,46.0,30.11,SW,227,0.0,2.0,78,0.00,,,0.00,,2013-10-08 05:13:00,
2013-10-08 00:22:00,52.0,46.0,30.11,SW,227,0.0,2.0,79,0.00,,,0.00,,2013-10-08 05:22:00,
2013-10-08 00:42:00,53.0,46.0,30.11,SSW,210,0.0,4.0,78,0.00,,,0.00,,2013-10-08 05:42:00,
2013-10-08 00:53:00,52.0,45.0,30.11,SW,231,0.0,3.0,78,0.00,,,0.00,,2013-10-08 05:53:00,
2013-10-08 01:12:00,53.0,46.0,30.12,SW,224,0.0,2.0,78,0.00,,,0.00,,2013-10-08 06:12:00,
2013-10-08 01:22:00,52.0,46.0,30.12,WSW,257,0.0,3.0,79,0.00,,,0.00,,2013-10-08 06:22:00,
2013-10-08 01:42:00,51.0,45.0,30.13,WSW,257,0.0,0.0,80,0.00,,,0.00,,2013-10-08 06:42:00,
2013-10-08 01:52:00,51.0,46.0,30.13,WSW,257,0.0,2.0,83,0.00,,,0.00,,2013-10-08 06:52:00,
2013-10-08 02:11:00,50.0,45.0,30.13,WSW,257,0.0,1.0,83,0.00,,,0.00,,2013-10-08 07:11:00,
2013-10-08 02:21:00,50.0,45.0,30.13,WSW,257,0.0,2.0,84,0.00,,,0.00,,2013-10-08 07:21:00,
2013-10-08 02:42:00,50.0,45.0,30.13,WSW,257,0.0,1.0,84,0.00,,,0.00,,2013-10-08 07:42:00,
2013-10-08 02:52:00,50.0,45.0,30.13,WSW,248,0.0,2.0,84,0.00,,,0.00,,2013-10-08 07:52:00,
2013-10-08 03:12:00,50.0,45.0,30.13,WSW,248,0.0,2.0,84,0.00,,,0.00,,2013-10-08 08:12:00,
2013-10-08 03:22:00,50.0,46.0,30.13,WSW,248,1.0,3.0,85,0.00,,,0.00,,2013-10-08 08:22:00,
2013-10-08 03:42:00,49.0,44.0,30.14,SW,216,0.0,4.0,84,0.00,,,0.00,,2013-10-08 08:42:00,
2013-10-08 03:52:00,49.0,45.0,30.14,SSW,211,0.0,4.0,86,0.00,,,0.00,,2013-10-08 08:52:00,
2013-10-08 04:12:00,48.0,44.0,30.14,SSW,211,0.0,1.0,87,0.00,,,0.00,,2013-10-08 09:12:00,
2013-10-08 04:22:00,48.0,44.0,30.14,SSW,211,0.0,2.0,87,0.00,,,0.00,,2013-10-08 09:22:00,
2013-10-08 04:43:00,48.0,45.0,30.14,WSW,251,0.0,2.0,88,0.00,,,0.00,,2013-10-08 09:43:00,
2013-10-08 04:53:00,48.0,44.0,30.14,SW,222,0.0,3.0,87,0.00,,,0.00,,2013-10-08 09:53:00,
2013-10-08 05:12:00,48.0,45.0,30.15,SW,227,0.0,2.0,88,0.00,,,0.00,,2013-10-08 10:12:00,
2013-10-08 05:23:00,48.0,45.0,30.15,WSW,240,0.0,4.0,88,0.00,,,0.00,,2013-10-08 10:23:00,
2013-10-08 05:42:00,48.0,45.0,30.16,WSW,240,0.0,2.0,88,0.00,,,0.00,,2013-10-08 10:42:00,
2013-10-08 05:53:00,48.0,45.0,30.16,WSW,240,0.0,2.0,88,0.00,,,0.00,,2013-10-08 10:53:00,
2013-10-08 06:12:00,49.0,45.0,30.16,SW,229,2.0,4.0,87,0.00,,,0.00,,2013-10-08 11:12:00,
2013-10-08 06:22:00,48.0,45.0,30.17,SSW,213,2.0,5.0,88,0.00,,,0.00,,2013-10-08 11:22:00,
2013-10-08 06:42:00,48.0,44.0,30.17,WSW,239,0.0,2.0,87,0.00,,,0.00,,2013-10-08 11:42:00,
2013-10-08 06:52:00,48.0,45.0,30.18,WSW,239,0.0,3.0,88,0.00,,,0.00,,2013-10-08 11:52:00,
2013-10-08 07:12:00,48.0,45.0,30.18,WSW,239,1.0,3.0,88,0.00,,,0.00,,2013-10-08 12:12:00,
2013-10-08 07:22:00,48.0,45.0,30.18,WSW,239,1.0,2.0,88,0.00,,,0.00,,2013-10-08 12:22:00,
2013-10-08 07:42:00,48.0,44.0,30.18,WSW,243,1.0,4.0,87,0.00,,,0.00,,2013-10-08 12:42:00,
2013-10-08 07:52:00,49.0,45.0,30.19,SW,225,1.0,4.0,87,0.00,,,0.00,,2013-10-08 12:52:00,
2013-10-08 08:12:00,50.0,46.0,30.19,WSW,244,1.0,4.0,86,0.00,,,0.00,,2013-10-08 13:12:00,
2013-10-08 08:22:00,51.0,47.0,30.19,SW,231,3.0,6.0,85,0.00,,,0.00,,2013-10-08 13:22:00,
2013-10-08 08:42:00,52.0,48.0,30.19,SW,215,2.0,5.0,85,0.00,,,0.00,,2013-10-08 13:42:00,
2013-10-08 08:52:00,53.0,48.0,30.20,SW,223,3.0,6.0,83,0.00,,,0.00,,2013-10-08 13:52:00,
2013-10-08 09:22:00,56.0,50.0,30.21,South,189,3.0,6.0,81,0.00,,,0.00,,2013-10-08 14:22:00,
2013-10-08 09:42:00,57.0,50.0,30.21,SSW,198,3.0,6.0,77,0.00,,,0.00,,2013-10-08 14:42:00,
2013-10-08 09:52:00,58.0,50.0,30.21,SSW,204,4.0,6.0,74,0.00,,,0.00,,2013-10-08 14:52:00,
2013-10-08 10:11:00,60.0,51.0,30.22,South,172,2.0,6.0,71,0.00,,,0.00,,2013-10-08 15:11:00,
2013-10-08 10:22:00,62.0,52.0,30.22,SSW,205,1.0,6.0,69,0.00,,,0.00,,2013-10-08 15:22:00,
2013-10-08 10:44:00,64.0,52.0,30.21,South,184,2.0,5.0,65,0.00,,,0.00,,2013-10-08 15:44:00,
2013-10-08 10:53:00,65.0,51.0,30.21,SW,215,1.0,5.0,61,0.00,,,0.00,,2013-10-08 15:53:00,
2013-10-08 11:13:00,67.0,51.0,30.21,South,173,3.0,7.0,56,0.00,,,0.00,,2013-10-08 16:13:00,
2013-10-08 11:23:00,68.0,49.0,30.21,SW,225,4.0,12.0,50,0.00,,,0.00,,2013-10-08 16:23:00,
2013-10-08 11:42:00,69.0,50.0,30.21,SSE,147,2.0,6.0,50,0.00,,,0.00,,2013-10-08 16:42:00,
2013-10-08 11:53:00,70.0,48.0,30.21,South,173,2.0,6.0,46,0.00,,,0.00,,2013-10-08 16:53:00,
2013-10-08 12:12:00,70.0,48.0,30.20,ESE,119,2.0,8.0,46,0.00,,,0.00,,2013-10-08 17:12:00,
2013-10-08 12:23:00,71.0,49.0,30.19,SW,221,2.0,7.0,45,0.00,,,0.00,,2013-10-08 17:23:00,
2013-10-08 12:42:00,71.0,48.0,30.19,SSW,213,4.0,9.0,44,0.00,,,0.00,,2013-10-08 17:42:00,
2013-10-08 12:52:00,72.0,48.0,30.19,SSW,208,3.0,10.0,43,0.00,,,0.00,,2013-10-08 17:52:00,
2013-10-08 13:11:00,72.0,47.0,30.17,WSW,250,3.0,6.0,41,0.00,,,0.00,,2013-10-08 18:11:00,
2013-10-08 13:22:00,72.0,48.0,30.17,SSW,209,1.0,9.0,42,0.00,,,0.00,,2013-10-08 18:22:00,
2013-10-08 13:42:00,73.0,49.0,30.16,SSW,194,5.0,9.0,42,0.00,,,0.00,,2013-10-08 18:42:00,
2013-10-08 13:52:00,74.0,47.0,30.16,South,188,4.0,9.0,39,0.00,,,0.00,,2013-10-08 18:52:00,
2013-10-08 14:11:00,74.0,49.0,30.15,SSE,161,6.0,11.0,41,0.00,,,0.00,,2013-10-08 19:11:00,
2013-10-08 14:21:00,74.0,50.0,30.15,SE,144,3.0,9.0,43,0.00,,,0.00,,2013-10-08 19:21:00,
2013-10-08 14:42:00,74.0,47.0,30.14,SSW,198,3.0,12.0,39,0.00,,,0.00,,2013-10-08 19:42:00,
2013-10-08 14:52:00,75.0,48.0,30.14,SSE,161,3.0,10.0,39,0.00,,,0.00,,2013-10-08 19:52:00,
2013-10-08 15:12:00,75.0,48.0,30.14,SSE,157,4.0,8.0,38,0.00,,,0.00,,2013-10-08 20:12:00,
2013-10-08 15:22:00,75.0,48.0,30.14,SSE,157,4.0,8.0,38,0.00,,,0.00,,2013-10-08 20:22:00,
2013-10-08 15:42:00,75.0,48.0,30.14,South,191,5.0,9.0,38,0.00,,,0.00,,2013-10-08 20:42:00,
2013-10-08 15:52:00,75.0,48.0,30.13,SSE,157,3.0,7.0,39,0.00,,,0.00,,2013-10-08 20:52:00,
2013-10-08 16:12:00,75.0,48.0,30.13,SE,144,5.0,12.0,38,0.00,,,0.00,,2013-10-08 21:12:00,
2013-10-08 16:22:00,75.0,47.0,30.13,ESE,113,6.0,11.0,37,0.00,,,0.00,,2013-10-08 21:22:00,
2013-10-08 16:44:00,75.0,47.0,30.13,SSE,151,6.0,11.0,37,0.00,,,0.00,,2013-10-08 21:44:00,
2013-10-08 16:54:00,75.0,47.0,30.13,ESE,123,6.0,12.0,37,0.00,,,0.00,,2013-10-08 21:54:00,
2013-10-08 17:13:00,75.0,47.0,30.13,SE,124,4.0,10.0,37,0.00,,,0.00,,2013-10-08 22:13:00,
2013-10-08 17:24:00,74.0,47.0,30.13,SE,134,4.0,11.0,38,0.00,,,0.00,,2013-10-08 22:24:00,
2013-10-08 17:46:00,74.0,47.0,30.13,ESE,120,4.0,9.0,39,0.00,,,0.00,,2013-10-08 22:46:00,
2013-10-08 17:55:00,73.0,48.0,30.13,SSE,148,5.0,8.0,41,0.00,,,0.00,,2013-10-08 22:55:00,
2013-10-08 18:03:00,73.0,48.0,30.13,SSE,148,5.0,8.0,41,0.00,,,0.00,,2013-10-08 23:03:00,
2013-10-08 18:12:00,73.0,48.0,30.13,SSE,148,5.0,8.0,41,0.00,,,0.00,,2013-10-08 23:12:00,
2013-10-08 18:23:00,70.0,48.0,30.13,SE,142,1.0,6.0,46,0.00,,,0.00,,2013-10-08 23:23:00,
2013-10-08 18:42:00,67.0,47.0,30.14,SE,142,0.0,1.0,49,0.00,,,0.00,,2013-10-08 23:42:00,
2013-10-08 18:52:00,65.0,46.0,30.14,SE,142,0.0,0.0,51,0.00,,,0.00,,2013-10-08 23:52:00,
2013-10-08 19:12:00,63.0,46.0,30.14,SE,143,0.0,1.0,54,0.00,,,0.00,,2013-10-09 00:12:00,
2013-10-08 19:43:00,61.0,48.0,30.15,SSE,147,2.0,4.0,62,0.00,,,0.00,,2013-10-09 00:43:00,
2013-10-08 19:52:00,60.0,48.0,30.15,SSE,151,3.0,4.0,65,0.00,,,0.00,,2013-10-09 00:52:00,
2013-10-08 20:12:00,59.0,48.0,30.15,SSE,147,1.0,4.0,66,0.00,,,0.00,,2013-10-09 01:12:00,
2013-10-08 20:22:00,58.0,48.0,30.16,SSW,192,1.0,3.0,70,0.00,,,0.00,,2013-10-09 01:22:00,
2013-10-08 20:43:00,57.0,48.0,30.16,SSE,155,0.0,1.0,71,0.00,,,0.00,,2013-10-09 01:43:00,
2013-10-08 20:52:00,56.0,47.0,30.16,SSE,166,0.0,2.0,71,0.00,,,0.00,,2013-10-09 01:52:00,
2013-10-08 21:12:00,55.0,47.0,30.16,SSE,164,0.0,2.0,75,0.00,,,0.00,,2013-10-09 02:12:00,
2013-10-08 21:23:00,55.0,48.0,30.16,SSE,164,0.0,0.0,76,0.00,,,0.00,,2013-10-09 02:23:00,
2013-10-08 21:42:00,55.0,47.0,30.16,SSE,165,0.0,1.0,75,0.00,,,0.00,,2013-10-09 02:42:00,
2013-10-08 21:52:00,55.0,47.0,30.16,SSE,165,0.0,1.0,75,0.00,,,0.00,,2013-10-09 02:52:00,
2013-10-08 22:11:00,55.0,47.0,30.16,SSE,165,0.0,0.0,75,0.00,,,0.00,,2013-10-09 03:11:00,
2013-10-08 22:23:00,54.0,47.0,30.17,SSE,165,0.0,0.0,78,0.00,,,0.00,,2013-10-09 03:23:00,
2013-10-08 22:44:00,54.0,48.0,30.17,SSE,165,0.0,1.0,79,0.00,,,0.00,,2013-10-09 03:44:00,
2013-10-08 22:54:00,53.0,47.0,30.17,SSE,165,0.0,0.0,80,0.00,,,0.00,,2013-10-09 03:54:00,
2013-10-08 23:14:00,53.0,47.0,30.17,SE,146,0.0,3.0,80,0.00,,,0.00,,2013-10-09 04:14:00,
2013-10-08 23:24:00,53.0,47.0,30.17,SE,146,0.0,0.0,81,0.00,,,0.00,,2013-10-09 04:24:00,
2013-10-08 23:44:00,53.0,47.0,30.16,SE,146,0.0,0.0,81,0.00,,,0.00,,2013-10-09 04:44:00,
2013-10-08 23:54:00,53.0,47.0,30.16,SSE,155,0.0,1.0,80,0.00,,,0.00,,2013-10-09 04:54:00,